KRDD

Redding Municipal Airport

Redding, California, USA
METAR KRDD 231053Z AUTO 00000KT 10SM OVC050 05/04 A3030 RMK AO2 SLP261 T00500039
Observed Flight Rules
Jan-23 @ 10:53 UTC (53 minutes ago) Visual Flight Rules
Wind Visibility Clouds
Calm 10 miles
  • Overcast at 5,000' AGL
Temperatures Readings
Current 5°C / 41°F
Dewpoint 4°C / 39°F
Humidity 93%
Altimeter 30.3" Hg
Pressure 1026.1 hPa
Elevation 155
METAR KRDD 231053Z AUTO 00000KT 10SM OVC050 05/04 A3030 RMK AO2 SLP261 T00500039
Observed Flight Rules
Jan-23 @ 10:53 UTC
(53 minutes ago)
VFR
Wind Visibility
Calm 10 miles
Clouds
  • Overcast at 5,000' AGL
Temperature Dewpoint
5°C / 41°F 4°C / 39°F
Humidity Altimeter Pressure
93% 30.3" Hg 1026.1 hPa